sensor_id;sensor_type;location;lat;lon;timestamp;pressure;altitude;pressure_sealevel;temperature;humidity
71642;BME280;60657;50.122;14.468;2024-01-10T00:00:49;99832.29222187115;;;-5.281528953994048;64.48142214084078
71642;BME280;60657;50.122;14.468;2024-01-10T00:03:53;99832.77932935234;;;-5.345616845960173;64.859082932784
71642;BME280;60657;50.122;14.468;2024-01-10T00:06:56;99823.42167683912;;;-5.39902342259861;65.3912413214313
71642;BME280;60657;50.122;14.468;2024-01-10T00:09:59;99821.96304100216;;;-5.417715724422067;65.57816433966583
71642;BME280;60657;50.122;14.468;2024-01-10T00:13:02;99810.54056888029;;;-5.455100328068973;65.68116273746853
71642;BME280;60657;50.122;14.468;2024-01-10T00:16:06;99814.30273486428;;;-5.543221179522391;66.28198672465095
71642;BME280;60657;50.122;14.468;2024-01-10T00:19:09;99807.72365131689;;;-5.732814526588847;66.67490653849089
71642;BME280;60657;50.122;14.468;2024-01-10T00:22:11;99819.39948544986;;;-5.684748607614253;66.85992217898833
71642;BME280;60657;50.122;14.468;2024-01-10T00:25:14;99821.19874972297;;;-5.8930342565041585;67.01060502021821
71642;BME280;60657;50.122;14.468;2024-01-10T00:28:17;99826.7832646997;;;-5.8422980086976395;67.24330510414282
71642;BME280;60657;50.122;14.468;2024-01-10T00:31:20;99816.58853558557;;;-5.802243076218815;66.99534599832151
71642;BME280;60657;50.122;14.468;2024-01-10T00:34:23;99810.98828880885;;;-5.927748531319139;67.75066758220798
71642;BME280;60657;50.122;14.468;2024-01-10T00:37:26;99810.26138495526;;;-5.898374914168002;67.79262989242389
71642;BME280;60657;50.122;14.468;2024-01-10T00:40:29;99808.20395622455;;;-5.852979324025327;67.94712748912795
71642;BME280;60657;50.122;14.468;2024-01-10T00:43:32;99809.16258289097;;;-5.94377050431067;67.3367666132601
71642;BME280;60657;50.122;14.468;2024-01-10T00:46:35;99795.921822073;;;-5.927748531319139;67.93568322270542
71642;BME280;60657;50.122;14.468;2024-01-10T00:49:38;99803.33086115391;;;-6.029221026932177;68.57656214236667
71642;BME280;60657;50.122;14.468;2024-01-10T00:52:41;99801.38101019195;;;-5.983825436789502;68.47737850003814
71642;BME280;60657;50.122;14.468;2024-01-10T00:55:43;99801.85888111968;;;-6.034561684596021;68.31525139238575
71642;BME280;60657;50.122;14.468;2024-01-10T00:58:46;99808.2689488509;;;-6.114671549553677;68.70054169527734
71642;BME280;60657;50.122;14.468;2024-01-10T01:01:49;99806.7912241143;;;-6.2962539101243635;68.68528267338064
71642;BME280;60657;50.122;14.468;2024-01-10T01:04:52;99807.83213013031;;;-6.360341802090488;69.20218204013123
71642;BME280;60657;50.122;14.468;2024-01-10T01:07:56;99812.08751353966;;;-6.360341802090488;69.74006256198977
71642;BME280;60657;50.122;14.468;2024-01-10T01:10:59;99818.73395551795;;;-6.432440680552375;69.90981918059052
71642;BME280;60657;50.122;14.468;2024-01-10T01:14:02;99817.88277624612;;;-6.416418707560844;69.61989776455329
71642;BME280;60657;50.122;14.468;2024-01-10T01:17:04;99810.16558485583;;;-6.397726405737394;69.70191500724803
71642;BME280;60657;50.122;14.468;2024-01-10T01:20:07;99816.3430079494;;;-6.411078049897;69.83161669336995
71642;BME280;60657;50.122;14.468;2024-01-10T01:23:11;99814.85886415669;;;-6.448462653543906;69.75341420614939
71642;BME280;60657;50.122;14.468;2024-01-10T01:26:14;99813.3727016164;;;-6.517891203173875;69.92698558022431
71642;BME280;60657;50.122;14.468;2024-01-10T01:29:17;99808.52009753311;;;-6.472495613031207;69.67139696345464
71642;BME280;60657;50.122;14.468;2024-01-10T01:32:20;99812.6080900163;;;-6.592660410467687;69.85259784847791
71642;BME280;60657;50.122;14.468;2024-01-10T01:35:23;99805.54296175325;;;-6.627374685282675;70.32372014953842
71642;BME280;60657;50.122;14.468;2024-01-10T01:38:26;99815.88527725913;;;-6.555275806820781;69.70572976272221
71642;BME280;60657;50.122;14.468;2024-01-10T01:41:29;99810.18213551084;;;-6.557946135652706;69.46540016784924
71642;BME280;60657;50.122;14.468;2024-01-10T01:44:31;99809.67106324623;;;-6.622034027618831;69.73243305104143
71642;BME280;60657;50.122;14.468;2024-01-10T01:47:34;99806.39415021292;;;-6.739528496223393;70.66895551995117
71642;BME280;60657;50.122;14.468;2024-01-10T01:50:37;99821.69985753988;;;-6.824979018844893;70.9436179140917
71642;BME280;60657;50.122;14.468;2024-01-10T01:53:40;99817.44282471025;;;-6.870374608987561;71.71229114213779
71642;BME280;60657;50.122;14.468;2024-01-10T01:56:46;99794.98915796836;;;-6.798275730525674;71.25261310749981
71642;BME280;60657;50.122;14.468;2024-01-10T01:59:51;99806.04078734138;;;-6.83566033417258;71.09430075532158
71642;BME280;60657;50.122;14.468;2024-01-10T02:02:54;99810.63180403509;;;-6.873044937819486;71.47768368047608
71642;BME280;60657;50.122;14.468;2024-01-10T02:05:59;99810.63180403509;;;-6.883726253147174;71.26405737392233
71642;BME280;60657;50.122;14.468;2024-01-10T02:09:01;99808.33639177957;;;-6.883726253147174;70.82536049439231
71642;BME280;60657;50.122;14.468;2024-01-10T02:12:06;99806.09138209317;;;-6.822308690012967;70.74334325169757
71642;BME280;60657;50.122;14.468;2024-01-10T02:15:09;99802.22061838405;;;-6.838330663004498;70.28366521705959
71642;BME280;60657;50.122;14.468;2024-01-10T02:18:12;99799.66699954837;;;-6.798275730525674;70.35233081559473
71642;BME280;60657;50.122;14.468;2024-01-10T02:21:15;99795.74795142264;;;-6.902418554970623;70.74143587396048
71642;BME280;60657;50.122;14.468;2024-01-10T02:24:18;99799.28148265941;;;-6.859693293659873;70.13870450904098
71642;BME280;60657;50.122;14.468;2024-01-10T02:27:21;99791.66842235645;;;-6.795605401693749;70.24933241779202
71642;BME280;60657;50.122;14.468;2024-01-10T02:30:24;99799.45680162706;;;-6.744869153887237;69.62561989776455
71642;BME280;60657;50.122;14.468;2024-01-10T02:33:27;99791.58478703933;;;-6.720836194399936;69.4711223010605
71642;BME280;60657;50.122;14.468;2024-01-10T02:36:30;99799.15282085737;;;-6.87838559548333;69.88883802548257
71642;BME280;60657;50.122;14.468;2024-01-10T02:39:33;99797.11342080343;;;-6.784924086366061;69.86404211490043
71642;BME280;60657;50.122;14.468;2024-01-10T02:42:36;99795.41105724819;;;-6.760891126878768;69.50926985580224
71642;BME280;60657;50.122;14.468;2024-01-10T02:45:39;99786.04837627929;;;-6.819638361181049;69.58365758754864
71642;BME280;60657;50.122;14.468;2024-01-10T02:48:42;99791.3106226773;;;-6.953154802777142;69.74769207293812
71642;BME280;60657;50.122;14.468;2024-01-10T02:51:46;99785.06870932535;;;-6.9264515144579235;69.84878309300373
71642;BME280;60657;50.122;14.468;2024-01-10T02:54:49;99791.82751229189;;;-6.939803158617529;69.60845349813077
71642;BME280;60657;50.122;14.468;2024-01-10T02:57:53;99793.27169355229;;;-6.9851987487602045;69.89646753643092
71642;BME280;60657;50.122;14.468;2024-01-10T03:00:56;99788.16433703723;;;-6.958495460440986;69.53788052185855
71642;BME280;60657;50.122;14.468;2024-01-10T03:03:58;99778.98223941882;;;-6.931792172121767;69.70382238498512
71642;BME280;60657;50.122;14.468;2024-01-10T03:07:02;99768.56121869746;;;-6.958495460440986;69.722896162356
71642;BME280;60657;50.122;14.468;2024-01-10T03:10:05;99774.80405962488;;;-7.049286640726329;69.62943465323873
71642;BME280;60657;50.122;14.468;2024-01-10T03:13:09;99776.76454060718;;;-7.0359349965667235;69.65423056382086
71642;BME280;60657;50.122;14.468;2024-01-10T03:16:12;99757.03258074346;;;-6.982528419928279;69.46730754558632
71642;BME280;60657;50.122;14.468;2024-01-10T03:19:15;99760.43634567707;;;-6.9851987487602045;69.44823376821546
71642;BME280;60657;50.122;14.468;2024-01-10T03:22:18;99772.17353444215;;;-6.987869077592123;69.47875181200885
71642;BME280;60657;50.122;14.468;2024-01-10T03:25:23;99775.6551898695;;;-7.014572365911349;69.75722896162355
71642;BME280;60657;50.122;14.468;2024-01-10T03:28:27;99775.83515755992;;;-6.913099870298311;69.48065918974594
71642;BME280;60657;50.122;14.468;2024-01-10T03:31:30;99770.21370453629;;;-7.011902037079423;69.70191500724803
71642;BME280;60657;50.122;14.468;2024-01-10T03:34:33;99760.30807334387;;;-6.9344625009536855;69.32616159304189
71642;BME280;60657;50.122;14.468;2024-01-10T03:37:36;99765.10733690225;;;-7.075989929045548;69.83733882658122
71642;BME280;60657;50.122;14.468;2024-01-10T03:40:39;99765.36511493241;;;-6.977187762264435;69.51117723353933
71642;BME280;60657;50.122;14.468;2024-01-10T03:43:42;99763.27623074934;;;-7.059967956054017;69.74006256198977
71642;BME280;60657;50.122;14.468;2024-01-10T03:46:45;99755.61700112827;;;-7.198825055313954;69.98992904554818
71642;BME280;60657;50.122;14.468;2024-01-10T03:49:49;99752.08383157708;;;-7.086671244373235;69.93080033569848
71642;BME280;60657;50.122;14.468;2024-01-10T03:52:52;99750.6576678991;;;-7.2415503166247035;70.44769970244907
71642;BME280;60657;50.122;14.468;2024-01-10T03:55:55;99750.38185211747;;;-7.100022888532848;70.0605020218204
71642;BME280;60657;50.122;14.468;2024-01-10T03:58:58;99748.80910062915;;;-7.0653086137178605;69.91554131380178
71642;BME280;60657;50.122;14.468;2024-01-10T04:02:01;99746.227374277;;;-6.947814145113298;69.46349279011216
71642;BME280;60657;50.122;14.468;2024-01-10T04:05:06;99744.68347326046;;;-7.177462424658579;70.0605020218204
71642;BME280;60657;50.122;14.468;2024-01-10T04:08:10;99746.56487846469;;;-7.049286640726329;70.11009384298467
71642;BME280;60657;50.122;14.468;2024-01-10T04:11:14;99757.96356991463;;;-6.958495460440986;69.74196993972686
71642;BME280;60657;50.122;14.468;2024-01-10T04:14:18;99741.5066280705;;;-6.939803158617529;69.60463874265659
71642;BME280;60657;50.122;14.468;2024-01-10T04:17:21;99746.227374277;;;-6.982528419928279;70.15587090867476
71642;BME280;60657;50.122;14.468;2024-01-10T04:20:24;99738.82615002654;;;-7.001220721751736;70.3103685053788
71642;BME280;60657;50.122;14.468;2024-01-10T04:23:27;99741.97312485942;;;-7.057297627222098;70.4744029907683
71642;BME280;60657;50.122;14.468;2024-01-10T04:26:30;99738.26327757424;;;-7.019913023575192;70.37331197070267
71642;BME280;60657;50.122;14.468;2024-01-10T04:29:33;99733.97749690419;;;-6.982528419928279;70.2092774853132
71642;BME280;60657;50.122;14.468;2024-01-10T04:32:36;99733.46496059191;;;-7.022583352407111;70.19211108567941
71642;BME280;60657;50.122;14.468;2024-01-10T04:35:39;99734.0590340201;;;-7.078660257877473;70.54306858930343
71642;BME280;60657;50.122;14.468;2024-01-10T04:38:44;99735.5036583441;;;-7.1240558480201415;70.61936369878691
71642;BME280;60657;50.122;14.468;2024-01-10T04:41:47;99735.88905385592;;;-7.057297627222098;70.78530556191348
71642;BME280;60657;50.122;14.468;2024-01-10T04:44:51;99727.21512337738;;;-6.974517433432517;70.11772335393302
71642;BME280;60657;50.122;14.468;2024-01-10T04:47:54;99734.8282666588;;;-7.011902037079423;70.29701686121919
71642;BME280;60657;50.122;14.468;2024-01-10T04:50:57;99732.87060618664;;;-7.011902037079423;70.10818646524758
71642;BME280;60657;50.122;14.468;2024-01-10T04:54:00;99739.67695984562;;;-7.038605325398642;70.30464637216754
71642;BME280;60657;50.122;14.468;2024-01-10T04:57:03;99740.14318037973;;;-7.009231708247505;70.26459143968872
71642;BME280;60657;50.122;14.468;2024-01-10T05:00:07;99743.70336282613;;;-7.166781109330891;70.48393987945373
71642;BME280;60657;50.122;14.468;2024-01-10T05:03:10;99745.19935480288;;;-7.10803387502861;70.6956588082704
71642;BME280;60657;50.122;14.468;2024-01-10T05:06:14;99747.82891642586;;;-7.177462424658579;70.2092774853132
71642;BME280;60657;50.122;14.468;2024-01-10T05:09:17;99746.77235197913;;;-7.166781109330891;70.45342183566034
71642;BME280;60657;50.122;14.468;2024-01-10T05:12:20;99744.52566112921;;;-6.995880064087892;70.12535286488136
71642;BME280;60657;50.122;14.468;2024-01-10T05:15:23;99745.32813024372;;;-7.07331960021363;69.73052567330434
71642;BME280;60657;50.122;14.468;2024-01-10T05:18:26;99751.027056606;;;-7.046616311894411;69.78774700541695
71642;BME280;60657;50.122;14.468;2024-01-10T05:21:29;99747.62328397631;;;-7.070649271381704;69.75341420614939
71642;BME280;60657;50.122;14.468;2024-01-10T05:24:33;99742.31047377795;;;-7.110704203860536;70.00518806744488
71642;BME280;60657;50.122;14.468;2024-01-10T05:27:42;99746.35552563085;;;-6.977187762264435;69.71335927367056
71642;BME280;60657;50.122;14.468;2024-01-10T05:30:45;99741.37859286372;;;-6.9344625009536855;69.1907377737087
71642;BME280;60657;50.122;14.468;2024-01-10T05:33:48;99735.59469020227;;;-6.889066910811017;69.07820248722057
71642;BME280;60657;50.122;14.468;2024-01-10T05:36:51;99732.10489891568;;;-6.918440527962154;68.98855573357747
71642;BME280;60657;50.122;14.468;2024-01-10T05:39:56;99734.656928218;;;-6.862363622491799;68.98855573357747
71642;BME280;60657;50.122;14.468;2024-01-10T05:43:05;99733.20953725978;;;-6.795605401693749;68.49645227740902
71642;BME280;60657;50.122;14.468;2024-01-10T05:46:08;99742.65543245895;;;-6.83566033417258;68.51552605477988
71642;BME280;60657;50.122;14.468;2024-01-10T05:49:12;99734.91086788342;;;-6.814297703517205;68.4258793011368
71642;BME280;60657;50.122;14.468;2024-01-10T05:52:15;99738.05969630643;;;-6.798275730525674;68.16456855115587
71642;BME280;60657;50.122;14.468;2024-01-10T05:55:18;99738.91039946175;;;-6.79293507286183;68.0291447318227
71642;BME280;60657;50.122;14.468;2024-01-10T05:58:21;99739.59331040553;;;-6.849011978332186;68.09018081940948
71642;BME280;60657;50.122;14.468;2024-01-10T06:01:24;99734.74396039455;;;-6.915770199130236;68.21606775005722
71642;BME280;60657;50.122;14.468;2024-01-10T06:04:27;99735.38053324872;;;-6.8677042801556425;68.12832837415122
71642;BME280;60657;50.122;14.468;2024-01-10T06:07:30;99724.95693878246;;;-6.841000991836424;68.0424963759823
71642;BME280;60657;50.122;14.468;2024-01-10T06:10:34;99732.95557089578;;;-6.824979018844893;67.87846189059282
71642;BME280;60657;50.122;14.468;2024-01-10T06:13:37;99724.1063380326;;;-6.83566033417258;67.99481193255512
71642;BME280;60657;50.122;14.468;2024-01-10T06:16:40;99719.12965034675;;;-6.832990005340655;68.13214312962539
71642;BME280;60657;50.122;14.468;2024-01-10T06:19:43;99725.68069598833;;;-6.865033951323717;68.03868162050813
71642;BME280;60657;50.122;14.468;2024-01-10T06:22:46;99725.29968343934;;;-6.873044937819486;68.2923628595407
71642;BME280;60657;50.122;14.468;2024-01-10T06:25:49;99721.30072169732;;;-6.923781185625998;68.10925459678035
71642;BME280;60657;50.122;14.468;2024-01-10T06:28:52;99725.68069598833;;;-6.843671320668342;67.97573815518425
71642;BME280;60657;50.122;14.468;2024-01-10T06:31:56;99722.27827520516;;;-6.849011978332186;67.72968642710002
71642;BME280;60657;50.122;14.468;2024-01-10T06:34:59;99721.55456250503;;;-6.83566033417258;67.74113069352255
71642;BME280;60657;50.122;14.468;2024-01-10T06:38:02;99726.40439289708;;;-6.843671320668342;67.54657816433966
71642;BME280;60657;50.122;14.468;2024-01-10T06:41:07;99729.42578269234;;;-6.910429541466392;67.36537727931639
71642;BME280;60657;50.122;14.468;2024-01-10T06:44:13;99731.25423138979;;;-6.870374608987561;67.44739452201114
71642;BME280;60657;50.122;14.468;2024-01-10T06:47:16;99726.31415488818;;;-6.798275730525674;67.17845426108187
71642;BME280;60657;50.122;14.468;2024-01-10T06:50:19;99716.10750681696;;;-6.846341649500268;67.23758297093157
71642;BME280;60657;50.122;14.468;2024-01-10T06:53:22;99729.80692944964;;;-6.8089570458533615;67.00297550926986
71642;BME280;60657;50.122;14.468;2024-01-10T06:56:25;99725.46357639735;;;-6.787594415197987;66.94384679942016
71642;BME280;60657;50.122;14.468;2024-01-10T06:59:28;99723.6358771783;;;-6.827649347676811;66.76264591439688
71642;BME280;60657;50.122;14.468;2024-01-10T07:02:31;99727.03820896106;;;-6.798275730525674;66.78934920271611
71642;BME280;60657;50.122;14.468;2024-01-10T07:05:34;99732.70129215131;;;-6.873044937819486;67.06782635233081
71642;BME280;60657;50.122;14.468;2024-01-10T07:08:38;99738.65621413018;;;-6.798275730525674;67.1574731059739
71642;BME280;60657;50.122;14.468;2024-01-10T07:11:41;99736.86581682289;;;-6.723506523231862;67.31197070267795
71642;BME280;60657;50.122;14.468;2024-01-10T07:14:44;99739.76110707017;;;-6.766231784542612;67.72587167162585
71642;BME280;60657;50.122;14.468;2024-01-10T07:17:51;99734.6007663167;;;-6.646066987106124;67.35202563515679
71642;BME280;60657;50.122;14.468;2024-01-10T07:20:55;99739.57832579825;;;-6.533913176165406;66.85992217898833
71642;BME280;60657;50.122;14.468;2024-01-10T07:23:58;99741.8351587337;;;-6.306935225452051;66.29915312428473
71642;BME280;60657;50.122;14.468;2024-01-10T07:27:01;99744.53095668703;;;-6.202792401007095;66.15991454947738
71642;BME280;60657;50.122;14.468;2024-01-10T07:30:04;99748.90724862875;;;-6.154726482032501;66.12558175020982
71642;BME280;60657;50.122;14.468;2024-01-10T07:33:09;99746.62823354932;;;-5.898374914168002;65.05935759517816
71642;BME280;60657;50.122;14.468;2024-01-10T07:36:12;99741.65716717421;;;-5.623331044480047;64.65499351491569
71642;BME280;60657;50.122;14.468;2024-01-10T07:39:15;99730.44772529756;;;-5.246814679179067;63.22064545662623
71642;BME280;60657;50.122;14.468;2024-01-10T07:42:18;99729.8829080937;;;-4.966430151827268;62.358510719462885
71642;BME280;60657;50.122;14.468;2024-01-10T07:45:22;99730.81772695274;;;-4.739452201113906;61.33424887464713
71642;BME280;60657;50.122;14.468;2024-01-10T07:48:25;99723.39835295155;;;-4.443045700770583;60.39391165026322
71642;BME280;60657;50.122;14.468;2024-01-10T07:51:30;99722.33509620317;;;-4.304188601510646;59.352483405813686
71642;BME280;60657;50.122;14.468;2024-01-10T07:54:33;99735.40545637519;;;-4.394979781795989;59.35629816128787
71642;BME280;60657;50.122;14.468;2024-01-10T07:57:37;99738.35955022862;;;-4.2881666285191145;58.85275043869687
71642;BME280;60657;50.122;14.468;2024-01-10T08:00:40;99733.88531421276;;;-4.034485389486534;59.66529335469596
71642;BME280;60657;50.122;14.468;2024-01-10T08:03:44;99722.08910461658;;;-3.6366063935301725;56.895780880445564
71642;BME280;60657;50.122;14.468;2024-01-10T08:06:47;99725.64066730304;;;-3.2253757534142053;56.38078889143206
71642;BME280;60657;50.122;14.468;2024-01-10T08:09:50;99728.10591246064;;;-2.920958266575113;54.467689021133744
71642;BME280;60657;50.122;14.468;2024-01-10T08:12:53;99720.89908779351;;;-2.7553978789959572;53.64179446097505
71642;BME280;60657;50.122;14.468;2024-01-10T08:15:56;99711.7703098297;;;-2.621881437399864;53.22407873655299
71642;BME280;60657;50.122;14.468;2024-01-10T08:18:59;99713.76816168451;;;-2.4429694056610955;52.772030212863356
71642;BME280;60657;50.122;14.468;2024-01-10T08:22:03;99707.4230073939;;;-2.0103761348897535;51.547493705653466
71642;BME280;60657;50.122;14.468;2024-01-10T08:25:06;99703.30737878408;;;-1.6231784542610797;50.40306706340124
71642;BME280;60657;50.122;14.468;2024-01-10T08:28:10;99690.60031031641;;;-1.273365377279319;49.485618371862365
71642;BME280;60657;50.122;14.468;2024-01-10T08:31:16;99696.24149467904;;;-1.214618142977038;47.925383382925155
71642;BME280;60657;50.122;14.468;2024-01-10T08:34:19;99705.20271325968;;;-1.0490577553978824;48.08369573510338
71642;BME280;60657;50.122;14.468;2024-01-10T08:37:22;99689.14682757818;;;-0.790035858701458;47.33218890669108
71642;BME280;60657;50.122;14.468;2024-01-10T08:40:25;99696.96299599255;;;-0.8621347371633448;46.99839780270084
71642;BME280;60657;50.122;14.468;2024-01-10T08:43:28;99690.64553427261;;;-0.5390249485008027;45.88639658197909
71642;BME280;60657;50.122;14.468;2024-01-10T08:46:32;99696.67771437037;;;-0.621805142290377;46.843900205996796
71642;BME280;60657;50.122;14.468;2024-01-10T08:49:36;99687.97723429513;;;-0.44823376821545935;47.02891584649424
71642;BME280;60657;50.122;14.468;2024-01-10T08:52:40;99692.18505397959;;;-0.1972228580148041;46.1210040436408
71642;BME280;60657;50.122;14.468;2024-01-10T08:55:43;99687.10370546601;;;-0.22392614633402275;46.544441901274126
71642;BME280;60657;50.122;14.468;2024-01-10T08:58:46;99683.89770110876;;;-0.3627832455939597;46.15533684290837
71642;BME280;60657;50.122;14.468;2024-01-10T09:01:50;99677.7175167815;;;-0.09842069123369157;46.244983596551464
71642;BME280;60657;50.122;14.468;2024-01-10T09:04:53;99690.58197335404;;;-0.2880140383001475;46.37850003814756
71642;BME280;60657;50.122;14.468;2024-01-10T09:07:56;99691.84356284191;;;-0.0850690470740858;46.2392614633402
71642;BME280;60657;50.122;14.468;2024-01-10T09:10:59;99683.86456819513;;;0.18196383611810774;45.834897383077745
71642;BME280;60657;50.122;14.468;2024-01-10T09:14:03;99688.76435377459;;;-0.01564049744411733;45.56786449988556
71642;BME280;60657;50.122;14.468;2024-01-10T09:17:06;99680.65628192555;;;-0.031662470435648515;46.74280918593118
71642;BME280;60657;50.122;14.468;2024-01-10T09:20:10;99693.5371380239;;;0.2700846875715257;46.237354085603116
71642;BME280;60657;50.122;14.468;2024-01-10T09:23:15;99678.90658606289;;;0.43030441748683756;45.712825207904174
71642;BME280;60657;50.122;14.468;2024-01-10T09:26:19;99681.05759625716;;;0.5825131609063874;45.92645151445792
71642;BME280;60657;50.122;14.468;2024-01-10T09:29:23;99670.31371567053;;;0.5905241474021494;45.89211871519036
71642;BME280;60657;50.122;14.468;2024-01-10T09:32:28;99672.60778520523;;;0.6813153276874928;44.574120698863204
71642;BME280;60657;50.122;14.468;2024-01-10T09:35:32;99666.3522459987;;;0.9643701838712104;44.99755855649653
71642;BME280;60657;50.122;14.468;2024-01-10T09:38:35;99660.68249413969;;;1.0204470893415731;43.19508659494927
71642;BME280;60657;50.122;14.468;2024-01-10T09:41:46;99670.15761611707;;;1.1566338597695918;43.84359502555886
71642;BME280;60657;50.122;14.468;2024-01-10T09:44:51;99666.09867279972;;;1.0364690623331043;44.74387731746395
71642;BME280;60657;50.122;14.468;2024-01-10T09:47:56;99660.08059625611;;;1.5571831845578714;44.171663996337834
71642;BME280;60657;50.122;14.468;2024-01-10T09:51:00;99646.85331525443;;;1.7734798199435389;43.45067521171893
71642;BME280;60657;50.122;14.468;2024-01-10T09:54:04;99647.24618147594;;;1.9390402075226945;43.34004730296788
71642;BME280;60657;50.122;14.468;2024-01-10T09:57:08;99640.03548210979;;;2.163347829404138;41.72259098191806
71642;BME280;60657;50.122;14.468;2024-01-10T10:00:11;99637.18687699697;;;2.0992599374380134;42.0411230640116
71642;BME280;60657;50.122;14.468;2024-01-10T10:03:18;99636.27247302906;;;2.1286335545891504;41.77790493629358
71642;BME280;60657;50.122;14.468;2024-01-10T10:06:22;99636.65608483335;;;1.9550621805142256;43.59945067521172
71642;BME280;60657;50.122;14.468;2024-01-10T10:09:28;99630.1849339672;;;2.403677424277106;42.44739452201114
71642;BME280;60657;50.122;14.468;2024-01-10T10:12:48;99638.26887754512;;;2.1419851987487633;42.603799496452275
71642;BME280;60657;50.122;14.468;2024-01-10T10:15:57;99628.84193182999;;;2.5745784695201053;42.47219043259327
71642;BME280;60657;50.122;14.468;2024-01-10T10:19:01;99625.23431556238;;;2.7668421454184795;41.57381551842527
71642;BME280;60657;50.122;14.468;2024-01-10T10:22:07;99622.14416287658;;;2.7748531319142415;42.21850919356069
71642;BME280;60657;50.122;14.468;2024-01-10T10:25:15;99632.4019050392;;;2.6787212939650544;41.83512626840619
71642;BME280;60657;50.122;14.468;2024-01-10T10:28:18;99631.30517371434;;;3.012512397955291;41.19233997100786
71642;BME280;60657;50.122;14.468;2024-01-10T10:31:22;99624.60605816082;;;2.9350728618295534;42.07164110780499
71642;BME280;60657;50.122;14.468;2024-01-10T10:34:30;99618.9208343661;;;3.2448310063324968;41.997253376058595
71642;BME280;60657;50.122;14.468;2024-01-10T10:37:34;99626.23186053472;;;3.218127718013278;41.383077744716566
71642;BME280;60657;50.122;14.468;2024-01-10T10:40:37;99619.19616558615;;;2.8683146410315103;42.529411764705884
71642;BME280;60657;50.122;14.468;2024-01-10T10:43:41;99623.70413641981;;;3.0098420691233727;42.79644464789807
71642;BME280;60657;50.122;14.468;2024-01-10T10:46:44;99635.34361728061;;;2.6867322804608236;43.13405050736248
71642;BME280;60657;50.122;14.468;2024-01-10T10:49:52;99614.91090514642;;;3.1113145647364036;42.71252002746624
71642;BME280;60657;50.122;14.468;2024-01-10T10:52:56;99607.29604931195;;;3.546578164339664;41.91905088883802
71642;BME280;60657;50.122;14.468;2024-01-10T10:56:02;99613.08011168135;;;3.2581826504921025;42.184176394293125
71642;BME280;60657;50.122;14.468;2024-01-10T10:59:07;99613.71221185304;;;3.0445563439383534;42.66483558403906
71642;BME280;60657;50.122;14.468;2024-01-10T11:02:14;99610.60754033072;;;3.1406881818875405;42.36346990157931